Aviation Digital Data Service (ADDS)

Output produced by METARs form (0629 UTC 20 October 2018)
found at http://www.aviationweather.gov/metar/data/
 
KUAO 200541Z 2006/2106 00000KT P6SM SKC 
     FM201300 00000KT 1SM BR OVC003 
     FM201700 01004KT P6SM SKC
       
KUES 200605Z 2006/2106 27010KT P6SM SKC 
     FM201300 30015G24KT P6SM VCSH BKN080 
     FM201500 31018G29KT 6SM -RASN BR BKN035 
     FM201800 32022G34KT P6SM VCSH BKN040 
     FM202000 32021G33KT P6SM SCT045 
     FM210000 32011KT P6SM SKC
       
KUIN 200520Z 2006/2106 29009KT P6SM SKC 
     FM201600 30018G28KT P6SM SKC 
     FM201900 32022G33KT P6SM FEW050 
     FM202300 34015G22KT P6SM FEW060 
     FM210300 35006KT P6SM SKC
       
KUKI 200528Z 2006/2106 VRB05KT P6SM SKC
       
KUNV 200545Z 2006/2106 22008G13KT P6SM VCSH BKN025 OVC050 WS020/23035KT 
     FM200800 26010G17KT P6SM VCSH OVC025 
     FM201200 26012KT P6SM VCSH OVC040 
     FM201600 27012G18KT P6SM OVC050
       
KUTS 200555Z 2006/2106 01005KT P6SM -RA SCT004 OVC010 
     FM200800 35003KT 4SM -RA BR BKN004 
     FM201600 36005KT P6SM BKN015 OVC030 
     FM202100 36004KT P6SM BKN025